Time;durP1;ratioP1;P1;durP2;ratioP2;P2;SDS_P1;SDS_P2;PMS_P1;PMS_P2;Temp;Humidity;BMP_temperature;BMP_pressure;BME280_temperature;BME280_humidity;BME280_pressure;Samples;Min_cycle;Max_cycle;Signal;HPM_P1;HPM_P2
2021/07/12 00:00:20;;;;;;;0.30;0.30;;;19.10;99.90;;;;;;4974053;28;20209;-76
2021/07/12 00:02:49;;;;;;;0.30;0.30;;;19.20;99.90;;;;;;4973869;28;20753;-76
2021/07/12 00:05:18;;;;;;;0.30;0.30;;;19.10;99.90;;;;;;4973507;28;20281;-76
2021/07/12 00:07:46;;;;;;;0.30;0.30;;;19.10;99.90;;;;;;4973591;28;20205;-76
2021/07/12 00:10:17;;;;;;;0.20;0.20;;;19.20;99.90;;;;;;4973834;28;20279;-76
2021/07/12 00:12:48;;;;;;;0.20;0.20;;;19.20;99.90;;;;;;4973472;28;20276;-76
2021/07/12 00:15:18;;;;;;;0.30;0.30;;;19.20;99.90;;;;;;4973296;28;20252;-76
2021/07/12 00:17:47;;;;;;;0.28;0.28;;;19.20;99.90;;;;;;4973996;28;20232;-77
2021/07/12 00:20:17;;;;;;;0.30;0.30;;;19.20;99.90;;;;;;4973516;28;20578;-76
2021/07/12 00:22:47;;;;;;;0.28;0.28;;;19.10;99.90;;;;;;4972551;28;20245;-76
2021/07/12 00:25:16;;;;;;;0.30;0.30;;;19.10;99.90;;;;;;4973604;28;20256;-77
2021/07/12 00:27:45;;;;;;;0.30;0.30;;;19.00;99.90;;;;;;4973316;28;20616;-76
2021/07/12 00:30:19;;;;;;;0.30;0.30;;;18.80;99.90;;;;;;4973749;28;20275;-75
2021/07/12 00:32:48;;;;;;;0.22;0.22;;;18.90;99.90;;;;;;4973314;28;20673;-76
2021/07/12 00:35:16;;;;;;;0.30;0.30;;;19.00;99.90;;;;;;4973349;28;20614;-76
2021/07/12 00:37:45;;;;;;;0.20;0.20;;;19.10;99.90;;;;;;4973208;28;20686;-76
2021/07/12 00:40:15;;;;;;;0.20;0.20;;;19.00;99.90;;;;;;4973262;28;20205;-76
2021/07/12 00:42:45;;;;;;;0.30;0.30;;;18.90;99.90;;;;;;4972941;28;20232;-76
2021/07/12 00:45:17;;;;;;;0.20;0.20;;;19.00;99.90;;;;;;4973091;28;20200;-76
2021/07/12 00:47:45;;;;;;;0.30;0.30;;;19.10;99.90;;;;;;4974031;28;20239;-76
2021/07/12 00:50:14;;;;;;;0.30;0.30;;;19.10;99.90;;;;;;4972989;28;20248;-76
2021/07/12 00:52:43;;;;;;;0.20;0.20;;;19.10;99.90;;;;;;4972623;28;20544;-76
2021/07/12 00:55:20;;;;;;;0.30;0.30;;;19.10;99.90;;;;;;4972769;28;20236;-75
2021/07/12 00:57:50;;;;;;;0.30;0.30;;;19.20;99.90;;;;;;4973158;28;20200;-76
2021/07/12 01:00:22;;;;;;;0.30;0.30;;;19.20;99.90;;;;;;4973068;28;20232;-76
2021/07/12 01:02:51;;;;;;;0.20;0.20;;;19.20;99.90;;;;;;4973088;28;20256;-76
2021/07/12 01:05:20;;;;;;;0.30;0.30;;;19.20;99.90;;;;;;4972760;28;20204;-76
2021/07/12 01:07:49;;;;;;;0.30;0.30;;;19.20;99.90;;;;;;4973201;28;20283;-76
2021/07/12 01:10:18;;;;;;;0.20;0.20;;;19.20;99.90;;;;;;4972740;28;20228;-77
2021/07/12 01:13:00;;;;;;;0.30;0.30;;;19.10;99.90;;;;;;4972821;28;20323;-76
2021/07/12 01:15:35;;;;;;;0.20;0.20;;;19.00;99.90;;;;;;4972237;28;20581;-76
2021/07/12 01:18:11;;;;;;;0.20;0.20;;;19.10;99.90;;;;;;4972849;28;20282;-77
2021/07/12 01:21:03;;;;;;;0.30;0.30;;;19.20;99.90;;;;;;4973354;28;20255;-77
2021/07/12 01:23:42;;;;;;;0.20;0.20;;;19.10;99.90;;;;;;4972756;28;20228;-76
2021/07/12 01:26:45;;;;;;;0.30;0.30;;;19.10;99.90;;;;;;4972341;28;20701;-76
2021/07/12 01:29:25;;;;;;;0.30;0.30;;;19.00;99.90;;;;;;4972942;28;20204;-77
2021/07/12 01:32:38;;;;;;;0.30;0.30;;;19.00;99.90;;;;;;4972546;28;20613;-76
2021/07/12 01:35:16;;;;;;;0.40;0.40;;;19.10;99.90;;;;;;4975625;28;20575;-76
2021/07/12 01:38:02;;;;;;;0.30;0.30;;;18.90;99.90;;;;;;4976749;28;20215;-77
2021/07/12 01:40:37;;;;;;;0.30;0.30;;;18.70;99.90;;;;;;4977458;28;20733;-76
2021/07/12 01:43:12;;;;;;;0.30;0.30;;;18.70;99.90;;;;;;4976598;28;20248;-77
2021/07/12 01:45:48;;;;;;;0.30;0.30;;;18.70;99.90;;;;;;4976467;28;20469;-77
2021/07/12 01:48:22;;;;;;;0.20;0.20;;;18.70;99.90;;;;;;4976620;28;20238;-77
2021/07/12 01:50:54;;;;;;;0.20;0.20;;;18.90;99.90;;;;;;4976364;28;20248;-76
2021/07/12 01:53:35;;;;;;;0.25;0.25;;;18.90;99.90;;;;;;4976484;28;20583;-76
2021/07/12 01:56:09;;;;;;;0.30;0.30;;;19.00;99.90;;;;;;4977279;28;20208;-76
2021/07/12 01:58:41;;;;;;;0.30;0.30;;;18.90;99.90;;;;;;4977511;28;20489;-77
2021/07/12 02:01:11;;;;;;;0.22;0.22;;;18.90;99.90;;;;;;4977249;28;20244;-76
2021/07/12 02:03:42;;;;;;;0.20;0.20;;;18.70;99.90;;;;;;4977258;28;20249;-76
2021/07/12 02:06:11;;;;;;;0.30;0.30;;;18.70;99.90;;;;;;4976721;28;20204;-76
2021/07/12 02:08:44;;;;;;;0.30;0.30;;;18.70;99.90;;;;;;4977258;28;20200;-77
2021/07/12 02:11:15;;;;;;;0.30;0.30;;;18.60;99.90;;;;;;4976577;28;20702;-77
2021/07/12 02:13:45;;;;;;;0.30;0.30;;;18.70;99.90;;;;;;4976402;28;20284;-77
2021/07/12 02:16:14;;;;;;;0.30;0.30;;;18.70;99.90;;;;;;4976113;28;20211;-77
2021/07/12 02:18:44;;;;;;;0.30;0.30;;;18.80;99.90;;;;;;4976675;28;20238;-75
2021/07/12 02:21:14;;;;;;;0.40;0.40;;;18.80;99.90;;;;;;4976601;28;20260;-76
2021/07/12 02:23:43;;;;;;;0.30;0.30;;;18.70;99.90;;;;;;4976342;28;20220;-76
2021/07/12 02:26:13;;;;;;;0.30;0.30;;;18.60;99.90;;;;;;4976071;28;20260;-76
2021/07/12 02:28:44;;;;;;;0.30;0.30;;;18.60;99.90;;;;;;4976217;28;20208;-77
2021/07/12 02:31:13;;;;;;;0.28;0.28;;;18.60;99.90;;;;;;4976432;28;20598;-77
2021/07/12 02:33:44;;;;;;;0.20;0.20;;;18.60;99.90;;;;;;4976334;28;20255;-77
2021/07/12 02:36:12;;;;;;;0.40;0.40;;;18.60;99.90;;;;;;4976097;28;20350;-77
2021/07/12 02:38:41;;;;;;;0.38;0.38;;;18.50;99.90;;;;;;4976189;28;20637;-77
2021/07/12 02:41:13;;;;;;;0.25;0.25;;;18.50;99.90;;;;;;4976011;28;20256;-77
2021/07/12 02:43:41;;;;;;;0.30;0.30;;;18.40;99.90;;;;;;4975868;28;20289;-77
2021/07/12 02:46:11;;;;;;;0.30;0.30;;;18.50;99.90;;;;;;4974908;28;20264;-77
2021/07/12 02:48:39;;;;;;;0.40;0.40;;;18.50;99.90;;;;;;4976304;28;20628;-77
2021/07/12 02:51:13;;;;;;;0.20;0.20;;;18.50;99.90;;;;;;4975869;28;20276;-77
2021/07/12 02:53:46;;;;;;;0.30;0.30;;;18.50;99.90;;;;;;4975756;28;20248;-76
2021/07/12 02:56:13;;;;;;;0.30;0.30;;;18.50;99.90;;;;;;4975717;28;20248;-77
2021/07/12 02:58:41;;;;;;;0.30;0.30;;;18.60;99.90;;;;;;4975908;28;20260;-77
2021/07/12 03:01:09;;;;;;;0.30;0.30;;;18.60;99.90;;;;;;4975860;28;20275;-77
2021/07/12 03:03:37;;;;;;;0.30;0.30;;;18.60;99.90;;;;;;4976937;28;20225;-77
2021/07/12 03:06:12;;;;;;;0.30;0.30;;;18.60;99.90;;;;;;4976777;28;20256;-77
2021/07/12 03:08:47;;;;;;;0.30;0.30;;;18.60;99.90;;;;;;4975637;28;20567;-77
2021/07/12 03:11:17;;;;;;;0.35;0.35;;;18.50;99.90;;;;;;4975649;28;20219;-77
2021/07/12 03:13:54;;;;;;;0.40;0.40;;;18.50;99.90;;;;;;4975510;28;20248;-77
2021/07/12 03:16:22;;;;;;;0.40;0.40;;;19.00;99.90;;;;;;4975282;28;20204;-76
2021/07/12 03:18:55;;;;;;;0.30;0.30;;;18.50;99.90;;;;;;4975296;28;20205;-77
2021/07/12 03:21:26;;;;;;;0.30;0.30;;;18.40;99.90;;;;;;4975579;28;20300;-77
2021/07/12 03:23:57;;;;;;;0.30;0.30;;;18.50;99.90;;;;;;4975353;28;20316;-76
2021/07/12 03:26:26;;;;;;;0.30;0.30;;;18.50;99.90;;;;;;4975054;28;20205;-77
2021/07/12 03:28:56;;;;;;;0.30;0.30;;;18.50;99.90;;;;;;4975390;28;20232;-77
2021/07/12 03:31:27;;;;;;;0.30;0.30;;;18.50;99.90;;;;;;4974951;28;20236;-77
2021/07/12 03:33:57;;;;;;;0.30;0.30;;;18.50;99.90;;;;;;4975018;28;20800;-77
2021/07/12 03:36:30;;;;;;;0.30;0.30;;;18.40;99.90;;;;;;4974959;28;20209;-77
2021/07/12 03:38:59;;;;;;;0.40;0.40;;;18.60;99.90;;;;;;4975089;28;20204;-77
2021/07/12 03:41:27;;;;;;;0.30;0.30;;;18.70;99.90;;;;;;4974893;28;20248;-77
2021/07/12 03:43:56;;;;;;;0.30;0.30;;;18.70;99.90;;;;;;4974739;28;20772;-76
2021/07/12 03:46:24;;;;;;;0.20;0.20;;;18.70;99.90;;;;;;4974804;28;20228;-77
2021/07/12 03:48:52;;;;;;;0.40;0.40;;;18.70;99.90;;;;;;4975028;28;20312;-77
2021/07/12 03:51:22;;;;;;;0.30;0.30;;;18.70;99.90;;;;;;4974795;28;20221;-77
2021/07/12 03:53:52;;;;;;;0.20;0.20;;;18.80;99.90;;;;;;4974746;28;20224;-77
2021/07/12 03:56:20;;;;;;;0.30;0.30;;;18.80;99.90;;;;;;4974209;28;20239;-77
2021/07/12 03:58:48;;;;;;;0.30;0.30;;;18.80;99.90;;;;;;4974611;28;20228;-77
2021/07/12 04:01:20;;;;;;;0.30;0.30;;;18.80;99.90;;;;;;4974685;28;20204;-77
2021/07/12 04:03:48;;;;;;;0.20;0.20;;;18.80;99.90;;;;;;4974480;28;20263;-77
2021/07/12 04:06:16;;;;;;;0.20;0.20;;;18.80;99.90;;;;;;4974264;28;20663;-77
2021/07/12 04:08:44;;;;;;;0.30;0.30;;;18.80;99.90;;;;;;4974408;28;20276;-77
2021/07/12 04:11:13;;;;;;;0.20;0.20;;;18.90;99.90;;;;;;4974532;28;20220;-77
2021/07/12 04:13:42;;;;;;;0.20;0.20;;;18.90;99.90;;;;;;4974234;28;20296;-77
2021/07/12 04:16:10;;;;;;;0.40;0.40;;;18.90;99.90;;;;;;4974689;28;20196;-76
2021/07/12 04:18:38;;;;;;;0.30;0.30;;;18.80;99.90;;;;;;4974367;28;20208;-77
2021/07/12 04:21:06;;;;;;;0.30;0.30;;;18.80;99.90;;;;;;4972935;28;20204;-77
2021/07/12 04:23:34;;;;;;;0.40;0.40;;;18.80;99.90;;;;;;4954607;28;20271;-77
2021/07/12 04:26:02;;;;;;;0.30;0.30;;;18.90;99.90;;;;;;4954086;29;20241;-77
2021/07/12 04:28:31;;;;;;;0.20;0.20;;;18.90;99.90;;;;;;4954648;29;20210;-76
2021/07/12 04:30:59;;;;;;;0.30;0.30;;;18.80;99.90;;;;;;4954467;29;20667;-77
2021/07/12 04:33:27;;;;;;;0.30;0.30;;;18.90;99.90;;;;;;4954619;28;20605;-77
2021/07/12 04:35:54;;;;;;;0.38;0.38;;;18.90;99.90;;;;;;4954151;29;20568;-77
2021/07/12 04:38:22;;;;;;;0.30;0.30;;;18.90;99.90;;;;;;4954439;29;20265;-77
2021/07/12 04:40:50;;;;;;;0.30;0.30;;;19.00;99.90;;;;;;4954638;29;20252;-77
2021/07/12 04:43:18;;;;;;;0.30;0.30;;;19.00;99.90;;;;;;4954328;28;20225;-77
2021/07/12 04:45:47;;;;;;;0.30;0.30;;;19.20;99.90;;;;;;4954211;28;20548;-77
2021/07/12 04:48:15;;;;;;;0.22;0.22;;;19.20;99.90;;;;;;4954389;29;20241;-77
2021/07/12 04:50:43;;;;;;;0.30;0.30;;;19.50;99.90;;;;;;4954483;29;20201;-76
2021/07/12 04:53:10;;;;;;;0.20;0.20;;;19.20;99.90;;;;;;4954254;29;20230;-77
2021/07/12 04:55:38;;;;;;;0.30;0.30;;;19.20;99.90;;;;;;4954086;29;20265;-77
2021/07/12 04:58:08;;;;;;;0.40;0.40;;;19.10;99.90;;;;;;4954106;29;20258;-77
2021/07/12 05:00:37;;;;;;;0.30;0.30;;;19.10;99.90;;;;;;4958828;28;20200;-77
2021/07/12 05:03:07;;;;;;;0.30;0.30;;;19.10;99.90;;;;;;4973020;28;20220;-77
2021/07/12 05:05:35;;;;;;;0.30;0.30;;;19.10;99.90;;;;;;4971489;28;20205;-77
2021/07/12 05:08:03;;;;;;;0.20;0.20;;;19.00;99.90;;;;;;4967677;28;20209;-77
2021/07/12 05:10:31;;;;;;;0.30;0.30;;;19.00;99.90;;;;;;4953490;29;20754;-77
2021/07/12 05:12:58;;;;;;;0.30;0.30;;;18.90;99.90;;;;;;4953902;28;20285;-76
2021/07/12 05:15:27;;;;;;;0.30;0.30;;;18.80;99.90;;;;;;4953546;29;20603;-76
2021/07/12 05:17:54;;;;;;;0.20;0.20;;;19.00;99.90;;;;;;4952737;29;20201;-76
2021/07/12 05:20:24;;;;;;;0.30;0.30;;;19.00;99.90;;;;;;4954975;28;20823;-80
2021/07/12 05:22:51;;;;;;;0.30;0.30;;;19.10;99.90;;;;;;4953884;29;20221;-77
2021/07/12 05:25:19;;;;;;;0.20;0.20;;;19.10;99.90;;;;;;4953047;29;20678;-76
2021/07/12 05:27:48;;;;;;;0.28;0.28;;;19.10;99.90;;;;;;4953840;29;20560;-76
2021/07/12 05:30:17;;;;;;;0.30;0.30;;;19.00;99.90;;;;;;4953710;29;20212;-77
2021/07/12 05:32:44;;;;;;;0.20;0.20;;;19.10;99.90;;;;;;4953248;29;20253;-77
2021/07/12 05:35:13;;;;;;;0.30;0.30;;;19.30;99.90;;;;;;4953991;29;20205;-76
2021/07/12 05:37:43;;;;;;;0.40;0.40;;;19.20;99.90;;;;;;4953845;29;20206;-76
2021/07/12 05:40:11;;;;;;;0.30;0.30;;;19.20;99.90;;;;;;4953771;29;20667;-76
2021/07/12 05:42:39;;;;;;;0.30;0.30;;;19.10;99.90;;;;;;4953524;29;20664;-76
2021/07/12 05:45:08;;;;;;;0.20;0.20;;;19.30;99.90;;;;;;4953766;29;20232;-76
2021/07/12 05:47:36;;;;;;;0.40;0.40;;;19.40;99.90;;;;;;4953764;29;20210;-76
2021/07/12 05:50:07;;;;;;;0.30;0.30;;;19.40;99.90;;;;;;4953837;29;20205;-76
2021/07/12 05:52:36;;;;;;;0.30;0.30;;;19.50;99.90;;;;;;4953509;29;20221;-77
2021/07/12 05:55:06;;;;;;;0.20;0.20;;;19.60;99.90;;;;;;4953581;29;20588;-76
2021/07/12 05:57:34;;;;;;;0.30;0.30;;;19.70;99.90;;;;;;4953593;29;20229;-77
2021/07/12 06:00:04;;;;;;;0.40;0.40;;;19.70;99.90;;;;;;4953725;29;20734;-76
2021/07/12 06:02:32;;;;;;;0.30;0.30;;;19.90;99.90;;;;;;4953776;29;20611;-76
2021/07/12 06:05:00;;;;;;;0.30;0.30;;;19.80;99.90;;;;;;4953638;28;20205;-76
2021/07/12 06:07:28;;;;;;;0.28;0.28;;;19.90;99.90;;;;;;4953215;29;20205;-76
2021/07/12 06:09:56;;;;;;;0.20;0.20;;;20.00;99.90;;;;;;4953732;28;20205;-76
2021/07/12 06:12:25;;;;;;;0.20;0.20;;;20.00;99.90;;;;;;4953294;29;20221;-76
2021/07/12 06:14:53;;;;;;;0.20;0.20;;;20.10;99.90;;;;;;4953640;29;20559;-76
2021/07/12 06:17:21;;;;;;;0.30;0.30;;;20.20;99.90;;;;;;4953314;28;20234;-76
2021/07/12 06:19:49;;;;;;;0.30;0.30;;;20.30;99.90;;;;;;4954363;28;20220;-76
2021/07/12 06:22:17;;;;;;;0.30;0.30;;;20.40;99.90;;;;;;4957120;29;20249;-76
2021/07/12 06:24:44;;;;;;;0.28;0.28;;;20.50;99.90;;;;;;4957021;29;20225;-76
2021/07/12 06:27:12;;;;;;;0.30;0.30;;;20.40;99.90;;;;;;4956855;28;20205;-76
2021/07/12 06:29:41;;;;;;;0.20;0.20;;;20.40;99.90;;;;;;4957043;29;20228;-76
2021/07/12 06:32:09;;;;;;;0.20;0.20;;;20.40;99.90;;;;;;4956806;29;20265;-76
2021/07/12 06:34:37;;;;;;;0.30;0.30;;;20.30;99.90;;;;;;4956772;29;20229;-76
2021/07/12 06:37:05;;;;;;;0.20;0.20;;;20.30;99.90;;;;;;4956563;29;20240;-76
2021/07/12 06:39:33;;;;;;;0.25;0.25;;;20.40;99.90;;;;;;4956825;29;20734;-76
2021/07/12 06:42:01;;;;;;;0.30;0.30;;;20.30;99.90;;;;;;4956790;28;20231;-76
2021/07/12 06:44:29;;;;;;;0.40;0.40;;;20.30;99.90;;;;;;4956640;29;20225;-76
2021/07/12 06:46:58;;;;;;;0.30;0.30;;;20.10;99.90;;;;;;4956400;29;20206;-76
2021/07/12 06:49:26;;;;;;;0.30;0.30;;;20.30;99.90;;;;;;4956604;29;20247;-76
2021/07/12 06:51:54;;;;;;;0.30;0.30;;;;;;;;;;4956690;28;20675;-76
2021/07/12 06:54:22;;;;;;;0.20;0.20;;;20.30;99.90;;;;;;4956280;29;20271;-76
2021/07/12 06:56:50;;;;;;;0.30;0.30;;;20.20;99.90;;;;;;4956122;29;20205;-76
2021/07/12 06:59:18;;;;;;;0.20;0.20;;;20.10;99.90;;;;;;4956418;29;20205;-76
2021/07/12 07:01:46;;;;;;;0.30;0.30;;;20.00;99.90;;;;;;4956308;29;20205;-76
2021/07/12 07:04:16;;;;;;;0.20;0.20;;;20.00;99.90;;;;;;4956565;29;20256;-76
2021/07/12 07:06:44;;;;;;;0.30;0.30;;;19.90;99.90;;;;;;4956334;29;20209;-76
2021/07/12 07:09:12;;;;;;;0.20;0.20;;;20.00;99.90;;;;;;4956356;29;20252;-76
2021/07/12 07:11:40;;;;;;;0.20;0.20;;;20.10;99.90;;;;;;4956295;29;20216;-76
2021/07/12 07:14:08;;;;;;;0.30;0.30;;;20.10;99.90;;;;;;4956181;28;20229;-76
2021/07/12 07:16:36;;;;;;;0.20;0.20;;;20.30;99.90;;;;;;4956274;28;20233;-76
2021/07/12 07:19:04;;;;;;;0.20;0.20;;;20.30;99.90;;;;;;4956163;29;20228;-77
2021/07/12 07:21:34;;;;;;;0.20;0.20;;;20.20;99.90;;;;;;4956270;29;20205;-76
2021/07/12 07:24:02;;;;;;;0.30;0.30;;;20.30;99.90;;;;;;4955895;29;20229;-77
2021/07/12 07:26:29;;;;;;;0.30;0.30;;;20.20;99.90;;;;;;4955709;29;20663;-77
2021/07/12 07:28:57;;;;;;;0.30;0.30;;;20.40;99.90;;;;;;4955733;28;20264;-77
2021/07/12 07:31:26;;;;;;;0.20;0.20;;;20.40;99.90;;;;;;4955559;28;20297;-76
2021/07/12 07:33:54;;;;;;;0.20;0.20;;;20.70;99.90;;;;;;4955690;29;20280;-77
2021/07/12 07:36:21;;;;;;;0.20;0.20;;;20.90;99.90;;;;;;4955683;29;20217;-76
2021/07/12 07:38:51;;;;;;;0.30;0.30;;;21.00;99.90;;;;;;4955650;29;20232;-76
2021/07/12 07:41:19;;;;;;;0.20;0.20;;;21.20;99.90;;;;;;4955567;29;20671;-77
2021/07/12 07:43:47;;;;;;;0.30;0.30;;;21.20;99.90;;;;;;4955670;29;20225;-76
2021/07/12 07:46:14;;;;;;;0.20;0.20;;;21.30;99.90;;;;;;4955387;29;20674;-76
2021/07/12 07:48:43;;;;;;;0.30;0.30;;;21.10;99.90;;;;;;4955437;29;20240;-77
2021/07/12 07:51:11;;;;;;;0.30;0.30;;;21.00;99.90;;;;;;4955436;29;20731;-76
2021/07/12 07:53:38;;;;;;;0.30;0.30;;;20.80;99.90;;;;;;4955240;29;20221;-76
2021/07/12 07:56:08;;;;;;;0.20;0.20;;;20.80;99.90;;;;;;4955544;29;20261;-76
2021/07/12 07:58:35;;;;;;;0.30;0.30;;;20.80;99.90;;;;;;4955574;29;20209;-76
2021/07/12 08:01:03;;;;;;;0.20;0.20;;;20.70;99.90;;;;;;4955557;29;20722;-77
2021/07/12 08:03:31;;;;;;;0.30;0.30;;;20.70;99.90;;;;;;4955681;28;20276;-76
2021/07/12 08:05:59;;;;;;;0.20;0.20;;;20.60;99.90;;;;;;4955300;29;20230;-76
2021/07/12 08:08:27;;;;;;;0.30;0.30;;;20.50;99.90;;;;;;4955030;29;20206;-76
2021/07/12 08:10:55;;;;;;;0.20;0.20;;;20.50;99.90;;;;;;4955251;28;20216;-76
2021/07/12 08:13:24;;;;;;;0.20;0.20;;;20.40;99.90;;;;;;4954840;29;20233;-76
2021/07/12 08:16:11;;;;;;;0.30;0.30;;;20.50;99.90;;;;;;4954812;29;20296;-76
2021/07/12 08:18:40;;;;;;;0.20;0.20;;;20.40;99.90;;;;;;4954865;28;20559;-76
2021/07/12 08:21:11;;;;;;;0.20;0.20;;;20.60;99.90;;;;;;4954832;28;20265;-76
2021/07/12 08:23:39;;;;;;;0.20;0.20;;;20.70;99.90;;;;;;4954918;29;20257;-76
2021/07/12 08:26:07;;;;;;;0.30;0.30;;;20.80;99.90;;;;;;4954503;28;20205;-76
2021/07/12 08:28:37;;;;;;;0.20;0.20;;;20.90;99.90;;;;;;4954739;29;20731;-76
2021/07/12 08:31:05;;;;;;;0.20;0.20;;;20.80;99.90;;;;;;4954814;29;20205;-76
2021/07/12 08:33:33;;;;;;;0.30;0.30;;;20.90;99.90;;;;;;4954640;29;20233;-76
2021/07/12 08:36:01;;;;;;;0.20;0.20;;;20.70;99.90;;;;;;4954658;28;20231;-76
2021/07/12 08:38:29;;;;;;;0.20;0.20;;;20.90;99.90;;;;;;4954791;29;20209;-76
2021/07/12 08:40:57;;;;;;;0.20;0.20;;;20.80;99.90;;;;;;4954934;29;20210;-76
2021/07/12 08:43:25;;;;;;;0.30;0.30;;;20.90;99.90;;;;;;4953620;28;20226;-76
2021/07/12 08:46:15;;;;;;;0.20;0.20;;;21.10;99.90;;;;;;4954521;29;20300;-76
2021/07/12 08:48:43;;;;;;;0.30;0.30;;;21.10;99.90;;;;;;4954604;28;20210;-76
2021/07/12 08:51:11;;;;;;;0.20;0.20;;;20.60;99.90;;;;;;4954681;29;20563;-76
2021/07/12 08:53:39;;;;;;;0.20;0.20;;;20.60;99.90;;;;;;4954546;29;20225;-76
2021/07/12 08:56:07;;;;;;;0.30;0.30;;;20.90;99.90;;;;;;4954121;29;20245;-76
2021/07/12 08:58:35;;;;;;;0.20;0.20;;;20.80;99.90;;;;;;4954425;29;20202;-76
2021/07/12 09:01:05;;;;;;;0.20;0.20;;;20.90;99.90;;;;;;4954251;29;20248;-76
2021/07/12 09:03:36;;;;;;;0.20;0.20;;;20.70;99.90;;;;;;4954212;29;20221;-76
2021/07/12 09:06:07;;;;;;;0.20;0.20;;;20.90;99.90;;;;;;4953967;29;20237;-76
2021/07/12 09:08:46;;;;;;;0.20;0.20;;;21.00;99.90;;;;;;4954170;29;20288;-76
2021/07/12 09:11:17;;;;;;;0.30;0.30;;;20.80;99.90;;;;;;4954386;29;20236;-76
2021/07/12 09:13:51;;;;;;;0.30;0.30;;;21.00;99.90;;;;;;4953945;29;20256;-76
2021/07/12 09:16:41;;;;;;;0.20;0.20;;;21.00;99.90;;;;;;4954014;29;20209;-76
2021/07/12 09:19:17;;;;;;;0.20;0.20;;;21.00;99.90;;;;;;4954297;29;20267;-76
2021/07/12 09:21:48;;;;;;;0.20;0.20;;;21.00;99.90;;;;;;4954215;29;20260;-76
2021/07/12 09:24:25;;;;;;;0.20;0.20;;;21.30;99.90;;;;;;4953978;29;20271;-76
2021/07/12 09:26:57;;;;;;;0.20;0.20;;;21.40;99.90;;;;;;4953984;29;20209;-76
2021/07/12 09:29:26;;;;;;;0.20;0.20;;;21.10;99.90;;;;;;4954207;29;20268;-76
2021/07/12 09:31:54;;;;;;;0.20;0.20;;;21.10;99.90;;;;;;4954072;29;20205;-76
2021/07/12 09:34:24;;;;;;;0.20;0.20;;;21.20;99.90;;;;;;4953759;29;20786;-77
2021/07/12 09:36:54;;;;;;;0.20;0.20;;;21.10;99.90;;;;;;4953777;29;20208;-76
2021/07/12 09:39:29;;;;;;;0.20;0.20;;;21.20;99.90;;;;;;4953923;29;20240;-77
2021/07/12 09:41:58;;;;;;;0.20;0.20;;;21.00;99.90;;;;;;4953952;29;20333;-76
2021/07/12 09:44:28;;;;;;;0.20;0.20;;;21.10;99.90;;;;;;4953564;29;20220;-76
2021/07/12 09:46:58;;;;;;;0.30;0.30;;;21.20;99.90;;;;;;4953778;29;20209;-77
2021/07/12 09:49:27;;;;;;;0.20;0.20;;;21.00;99.90;;;;;;4953740;29;20205;-76
2021/07/12 09:51:57;;;;;;;0.20;0.20;;;21.30;99.90;;;;;;4953867;29;20292;-76
2021/07/12 09:54:27;;;;;;;0.20;0.20;;;21.50;99.90;;;;;;4953702;28;20277;-77
2021/07/12 09:56:56;;;;;;;0.20;0.20;;;21.70;99.90;;;;;;4957409;29;20558;-77
2021/07/12 09:59:24;;;;;;;0.20;0.20;;;21.60;99.90;;;;;;4957515;29;20210;-77
2021/07/12 10:01:53;;;;;;;0.20;0.20;;;21.90;99.90;;;;;;4957846;28;20205;-77
2021/07/12 10:04:22;;;;;;;0.20;0.20;;;21.80;99.90;;;;;;4957545;29;20563;-77
2021/07/12 10:06:53;;;;;;;0.20;0.20;;;21.90;99.90;;;;;;4957108;29;20218;-77
2021/07/12 10:09:24;;;;;;;0.20;0.20;;;22.00;99.90;;;;;;4957764;29;20730;-77
2021/07/12 10:11:55;;;;;;;0.20;0.20;;;22.10;99.90;;;;;;4957866;29;20240;-77
2021/07/12 10:14:25;;;;;;;0.20;0.20;;;22.30;99.90;;;;;;4957502;29;20606;-77
2021/07/12 10:16:53;;;;;;;0.20;0.20;;;22.30;99.90;;;;;;4980972;23;20224;-81
2021/07/12 10:19:21;;;;;;;0.20;0.20;;;22.50;99.90;;;;;;4988911;28;20208;-81
2021/07/12 10:21:52;;;;;;;0.20;0.20;;;22.40;99.90;;;;;;4989421;28;20208;-81
2021/07/12 10:24:25;;;;;;;0.20;0.20;;;22.40;99.90;;;;;;4990636;28;20209;-81
2021/07/12 10:26:59;;;;;;;0.20;0.20;;;22.50;99.90;;;;;;4982841;28;20248;-81
2021/07/12 10:29:32;;;;;;;0.20;0.20;;;22.70;99.90;;;;;;4982796;28;20240;-81
2021/07/12 10:32:13;;;;;;;0.20;0.20;;;22.80;99.90;;;;;;4984801;28;20201;-81
2021/07/12 10:34:46;;;;;;;0.20;0.20;;;22.80;99.90;;;;;;4983282;28;20221;-81
2021/07/12 10:37:22;;;;;;;0.20;0.20;;;23.40;99.90;;;;;;4983661;28;20295;-81
2021/07/12 10:40:12;;;;;;;0.20;0.20;;;23.80;99.90;;;;;;4984504;28;20200;-81
2021/07/12 10:42:54;;;;;;;0.20;0.20;;;24.10;99.90;;;;;;4986208;28;20302;-81
2021/07/12 10:45:42;;;;;;;0.20;0.20;;;24.40;99.90;;;;;;4984902;28;20197;-81
2021/07/12 10:48:16;;;;;;;0.10;0.10;;;24.50;99.90;;;;;;4984228;28;20289;-81
2021/07/12 10:50:54;;;;;;;0.20;0.20;;;24.50;99.90;;;;;;4984866;28;20204;-81
2021/07/12 10:53:58;;;;;;;0.20;0.20;;;24.50;99.90;;;;;;4982739;28;20666;-82
2021/07/12 10:56:42;;;;;;;0.10;0.10;;;24.70;99.90;;;;;;4983861;28;20732;-81
2021/07/12 10:59:24;;;;;;;0.20;0.20;;;24.80;99.90;;;;;;4981173;28;20300;-81
2021/07/12 11:01:53;;;;;;;0.20;0.20;;;24.90;99.90;;;;;;4985623;28;20212;-81
2021/07/12 11:04:45;;;;;;;0.20;0.20;;;25.10;99.90;;;;;;4986574;28;20271;-82
2021/07/12 11:07:15;;;;;;;0.20;0.20;;;25.10;99.90;;;;;;4984367;28;20664;-82
2021/07/12 11:09:53;;;;;;;0.17;0.17;;;25.40;99.90;;;;;;4987404;28;20219;-81
2021/07/12 11:12:52;;;;;;;0.10;0.10;;;25.60;99.90;;;;;;4985387;28;20204;-81
2021/07/12 11:15:31;;;;;;;0.10;0.10;;;25.80;99.90;;;;;;4966969;28;20291;-81
2021/07/12 11:18:04;;;;;;;0.20;0.20;;;25.90;99.90;;;;;;4980452;28;20283;-81
2021/07/12 11:21:02;;;;;;;0.10;0.10;;;26.10;99.90;;;;;;4980565;28;20204;-81
2021/07/12 11:23:51;;;;;;;0.20;0.20;;;26.10;99.90;;;;;;4982047;28;20208;-81
2021/07/12 11:26:53;;;;;;;0.10;0.10;;;26.00;99.90;;;;;;4980106;28;20594;-81
2021/07/12 11:29:36;;;;;;;0.20;0.20;;;26.00;99.90;;;;;;4982396;28;20200;-81
2021/07/12 11:32:15;;;;;;;0.20;0.20;;;25.90;99.90;;;;;;4982298;28;20232;-81
2021/07/12 11:35:00;;;;;;;0.20;0.20;;;25.60;99.90;;;;;;4982643;28;20205;-81
2021/07/12 11:37:29;;;;;;;0.20;0.20;;;25.60;99.90;;;;;;4980598;28;20582;-81
2021/07/12 11:39:59;;;;;;;0.20;0.20;;;25.50;99.90;;;;;;4982174;28;20201;-80
2021/07/12 11:42:31;;;;;;;0.20;0.20;;;25.30;99.90;;;;;;4982048;28;20236;-81
2021/07/12 11:45:03;;;;;;;0.10;0.10;;;25.30;99.90;;;;;;4984589;28;20201;-81
2021/07/12 11:47:33;;;;;;;0.10;0.10;;;25.30;99.90;;;;;;4983890;28;20709;-81
2021/07/12 11:50:05;;;;;;;0.10;0.10;;;25.40;99.90;;;;;;4983935;28;20208;-81
2021/07/12 11:52:34;;;;;;;0.20;0.20;;;25.50;99.90;;;;;;4987763;28;20263;-81
2021/07/12 11:55:08;;;;;;;0.20;0.20;;;25.50;99.90;;;;;;4984171;28;20236;-81
2021/07/12 11:57:45;;;;;;;0.20;0.20;;;25.60;99.90;;;;;;4982928;28;20595;-81
2021/07/12 12:00:15;;;;;;;0.20;0.20;;;25.50;99.90;;;;;;4984006;28;20204;-80
2021/07/12 12:02:43;;;;;;;0.20;0.20;;;25.40;99.90;;;;;;4982468;28;20236;-81
2021/07/12 12:05:13;;;;;;;0.20;0.20;;;25.50;99.90;;;;;;4983175;28;20204;-81
2021/07/12 12:07:45;;;;;;;0.20;0.20;;;25.50;99.90;;;;;;4985010;28;20371;-81
2021/07/12 12:10:15;;;;;;;0.20;0.20;;;25.70;99.90;;;;;;4989438;28;20208;-81
2021/07/12 12:12:47;;;;;;;0.20;0.20;;;25.80;99.90;;;;;;4984177;28;20209;-82
2021/07/12 12:15:19;;;;;;;0.20;0.20;;;25.90;99.90;;;;;;4975162;28;20208;-81
2021/07/12 12:17:53;;;;;;;0.20;0.20;;;26.00;99.50;;;;;;4975424;28;20578;-82
2021/07/12 12:20:24;;;;;;;0.20;0.20;;;26.30;98.90;;;;;;4974999;28;20208;-82
2021/07/12 12:22:54;;;;;;;0.15;0.15;;;26.40;99.00;;;;;;4978028;28;20654;-81
2021/07/12 12:25:23;;;;;;;0.10;0.10;;;26.50;96.50;;;;;;4995624;28;20204;-80
2021/07/12 12:27:52;;;;;;;0.20;0.20;;;26.70;96.40;;;;;;4993662;28;20259;-81
2021/07/12 12:30:20;;;;;;;0.20;0.20;;;26.60;95.80;;;;;;4998340;28;20185;-81
2021/07/12 12:32:56;;;;;;;0.20;0.20;;;26.80;95.40;;;;;;4997103;28;20188;-79
2021/07/12 12:35:26;;;;;;;0.10;0.10;;;27.10;94.90;;;;;;4983725;28;20227;-81
2021/07/12 12:37:55;;;;;;;0.20;0.20;;;27.40;95.30;;;;;;4982646;28;20279;-80
2021/07/12 12:40:25;;;;;;;0.20;0.20;;;27.70;93.60;;;;;;4981246;28;20228;-81
2021/07/12 12:42:55;;;;;;;0.10;0.10;;;28.00;92.70;;;;;;4980252;28;20611;-80
2021/07/12 12:45:44;;;;;;;0.10;0.10;;;28.90;92.90;;;;;;4976769;28;20494;-80
2021/07/12 12:48:12;;;;;;;0.10;0.10;;;29.20;92.00;;;;;;4981472;28;20223;-80
2021/07/12 12:50:40;;;;;;;0.10;0.10;;;29.90;90.80;;;;;;4981936;28;20223;-81
2021/07/12 12:53:09;;;;;;;0.10;0.10;;;30.30;85.40;;;;;;4981974;28;20204;-81
2021/07/12 12:55:38;;;;;;;0.10;0.10;;;30.30;91.00;;;;;;4982512;28;20216;-82
2021/07/12 12:58:10;;;;;;;0.10;0.10;;;30.50;82.10;;;;;;4983967;28;20282;-82
2021/07/12 13:00:39;;;;;;;0.10;0.10;;;30.60;83.40;;;;;;4983802;28;20204;-82
2021/07/12 13:03:16;;;;;;;0.10;0.10;;;31.00;79.20;;;;;;4984613;28;20224;-81
2021/07/12 13:05:44;;;;;;;0.15;0.15;;;30.40;78.80;;;;;;4983579;28;20211;-82
2021/07/12 13:08:12;;;;;;;0.10;0.10;;;30.50;80.30;;;;;;4985511;28;20220;-82